createdAt,value
2024-01-08T00:01:14.546Z,-0.51
2024-01-08T00:03:44.493Z,-0.55
2024-01-08T00:06:12.545Z,-0.49
2024-01-08T00:08:40.893Z,-0.52
2024-01-08T00:11:08.968Z,-0.54
2024-01-08T00:13:36.974Z,-0.48
2024-01-08T00:16:05.430Z,-0.52
2024-01-08T00:18:33.931Z,-0.54
2024-01-08T00:21:04.275Z,-0.54
2024-01-08T00:23:34.676Z,-0.52
2024-01-08T00:26:02.993Z,-0.48
2024-01-08T00:28:31.096Z,-0.52
2024-01-08T00:30:59.248Z,-0.46
2024-01-08T00:33:27.627Z,-0.48
2024-01-08T00:35:55.780Z,-0.45
2024-01-08T00:38:25.236Z,-0.51
2024-01-08T00:40:53.581Z,-0.42
2024-01-08T00:43:21.762Z,-0.51
2024-01-08T00:45:49.899Z,-0.48
2024-01-08T00:48:17.930Z,-0.45
2024-01-08T00:50:46.177Z,-0.51
2024-01-08T00:53:14.244Z,-0.51
2024-01-08T00:55:43.658Z,-0.50
2024-01-08T00:58:11.769Z,-0.46
2024-01-08T01:00:39.771Z,-0.49
2024-01-08T01:03:07.776Z,-0.50
2024-01-08T01:05:36.060Z,-0.49
2024-01-08T01:08:04.374Z,-0.48
2024-01-08T01:10:32.458Z,-0.45
2024-01-08T01:13:02.081Z,-0.42
2024-01-08T01:15:30.072Z,-0.44
2024-01-08T01:17:58.157Z,-0.46
2024-01-08T01:20:26.914Z,-0.45
2024-01-08T01:22:55.052Z,-0.42
2024-01-08T01:25:23.056Z,-0.43
2024-01-08T01:27:51.057Z,-0.43
2024-01-08T01:30:20.515Z,-0.40
2024-01-08T01:32:48.651Z,-0.45
2024-01-08T01:35:17.334Z,-0.45
2024-01-08T01:37:45.427Z,-0.44
2024-01-08T01:40:13.912Z,-0.45
2024-01-08T01:42:42.253Z,-0.47
2024-01-08T01:45:10.669Z,-0.45
2024-01-08T01:47:40.312Z,-0.45
2024-01-08T01:50:10.240Z,-0.47
2024-01-08T01:52:38.379Z,-0.44
2024-01-08T01:55:07.361Z,-0.44
2024-01-08T01:57:35.983Z,-0.41
2024-01-08T02:00:04.231Z,-0.41
2024-01-08T02:02:43.233Z,-0.40
2024-01-08T02:05:12.578Z,-0.43
2024-01-08T02:07:41.608Z,-0.37
2024-01-08T02:10:10.811Z,-0.42
2024-01-08T02:12:39.145Z,-0.43
2024-01-08T02:15:07.640Z,-0.32
2024-01-08T02:17:35.860Z,-0.37
2024-01-08T02:20:06.241Z,-0.34
2024-01-08T02:22:41.160Z,-0.38
2024-01-08T02:25:10.146Z,-0.39
2024-01-08T02:27:38.069Z,-0.31
2024-01-08T02:30:07.472Z,-0.29
2024-01-08T02:32:35.805Z,-0.37
2024-01-08T02:35:04.017Z,-0.36
2024-01-08T02:37:32.199Z,-0.29
2024-01-08T02:40:02.054Z,-0.32
2024-01-08T02:42:30.195Z,-0.32
2024-01-08T02:44:58.158Z,-0.34
2024-01-08T02:47:26.678Z,-0.31
2024-01-08T02:49:54.726Z,-0.36
2024-01-08T02:52:22.712Z,-0.37
2024-01-08T02:54:50.756Z,-0.35
2024-01-08T02:57:20.090Z,-0.33
2024-01-08T02:59:48.081Z,-0.30
2024-01-08T03:02:16.079Z,-0.27
2024-01-08T03:04:44.119Z,-0.32
2024-01-08T03:07:13.075Z,-0.26
2024-01-08T03:09:42.313Z,-0.37
2024-01-08T03:12:10.370Z,-0.34
2024-01-08T03:14:39.717Z,-0.36
2024-01-08T03:17:07.819Z,-0.37
2024-01-08T03:19:35.815Z,-0.35
2024-01-08T03:22:04.257Z,-0.32
2024-01-08T03:24:32.237Z,-0.38
2024-01-08T03:27:00.394Z,-0.36
2024-01-08T03:29:28.546Z,-0.27
2024-01-08T03:31:57.966Z,-0.25
2024-01-08T03:34:26.208Z,-0.25
2024-01-08T03:36:54.518Z,-0.29
2024-01-08T03:39:22.552Z,-0.31
2024-01-08T03:41:50.670Z,-0.29
2024-01-08T03:44:18.698Z,-0.29
2024-01-08T03:46:48.801Z,-0.27
2024-01-08T03:49:18.921Z,-0.26
2024-01-08T03:51:48.146Z,-0.23
2024-01-08T03:54:16.557Z,-0.24
2024-01-08T03:56:45.486Z,-0.26
2024-01-08T03:59:14.232Z,-0.17
2024-01-08T04:01:46.319Z,-0.17
2024-01-08T04:04:14.593Z,-0.15
2024-01-08T04:06:44.491Z,-0.16
2024-01-08T04:09:13.480Z,-0.19
2024-01-08T04:11:42.039Z,-0.22
2024-01-08T04:14:10.178Z,-0.17
2024-01-08T04:16:39.085Z,-0.14
2024-01-08T04:19:07.332Z,-0.16
2024-01-08T04:21:35.518Z,-0.18
2024-01-08T04:24:05.175Z,-0.12
2024-01-08T04:26:33.295Z,-0.15
2024-01-08T04:29:01.432Z,-0.10
2024-01-08T04:31:29.998Z,-0.15
2024-01-08T04:33:58.119Z,-0.20
2024-01-08T04:36:26.345Z,-0.17
2024-01-08T04:38:54.655Z,-0.19
2024-01-08T04:41:24.236Z,-0.21
2024-01-08T04:43:52.326Z,-0.20
2024-01-08T04:46:20.500Z,-0.16
2024-01-08T04:48:48.740Z,-0.29
2024-01-08T04:51:24.125Z,-0.44
2024-01-08T04:53:52.371Z,-0.56
2024-01-08T04:56:21.947Z,-0.57
2024-01-08T04:58:51.563Z,-0.63
2024-01-08T05:01:19.974Z,-0.60
2024-01-08T05:03:47.370Z,-0.51
2024-01-08T05:06:16.296Z,-0.46
2024-01-08T05:08:44.380Z,-0.48
2024-01-08T05:11:13.989Z,-0.53
2024-01-08T05:13:42.945Z,-0.59
2024-01-08T05:16:12.382Z,-0.59
2024-01-08T05:18:40.495Z,-0.63
2024-01-08T05:21:09.328Z,-0.46
2024-01-08T05:23:37.981Z,-0.51
2024-01-08T05:26:06.346Z,-0.47
2024-01-08T05:28:34.547Z,-0.51
2024-01-08T05:31:02.781Z,-0.40
2024-01-08T05:33:32.444Z,-0.35
2024-01-08T05:36:00.685Z,-0.34
2024-01-08T05:38:29.135Z,-0.33
2024-01-08T05:41:55.493Z,-0.30
2024-01-08T05:44:23.734Z,-0.30
2024-01-08T05:46:52.162Z,-0.24
2024-01-08T05:49:21.711Z,-0.30
2024-01-08T05:51:49.826Z,-0.37
2024-01-08T05:54:17.872Z,-0.25
2024-01-08T05:56:45.884Z,-0.24
2024-01-08T05:59:14.153Z,-0.23
2024-01-08T06:01:43.830Z,-0.28
2024-01-08T06:04:12.453Z,-0.23
2024-01-08T06:06:42.137Z,-0.27
2024-01-08T06:09:10.330Z,-0.13
2024-01-08T06:11:38.735Z,-0.21
2024-01-08T06:14:09.143Z,-0.18
2024-01-08T06:16:40.045Z,-0.21
2024-01-08T06:19:12.187Z,-0.11
2024-01-08T06:21:45.563Z,-0.19
2024-01-08T06:24:13.826Z,-0.11
2024-01-08T06:26:42.188Z,-0.20
2024-01-08T06:29:12.675Z,-0.11
2024-01-08T06:35:42.943Z,-0.17
2024-01-08T06:38:13.099Z,-0.18
2024-01-08T06:40:41.415Z,-0.18
2024-01-08T06:43:09.643Z,-0.17
2024-01-08T06:45:37.765Z,-0.11
2024-01-08T06:48:06.627Z,-0.10
2024-01-08T06:50:34.991Z,-0.11
2024-01-08T06:53:05.552Z,-0.22
2024-01-08T06:55:35.342Z,-0.18
2024-01-08T06:58:03.471Z,-0.12
2024-01-08T07:00:31.579Z,-0.23
2024-01-08T07:02:59.877Z,-0.19
2024-01-08T07:05:28.173Z,-0.19
2024-01-08T07:07:57.469Z,-0.22
2024-01-08T07:10:25.697Z,-0.16
2024-01-08T07:12:55.138Z,-0.10
2024-01-08T07:15:40.032Z,-0.15
2024-01-08T07:18:10.136Z,-0.14
2024-01-08T07:20:39.501Z,-0.17
2024-01-08T07:23:09.800Z,-0.15
2024-01-08T07:25:38.461Z,-0.13
2024-01-08T07:28:09.675Z,-0.10
2024-01-08T07:30:38.314Z,-0.14
2024-01-08T07:33:06.942Z,-0.16
2024-01-08T07:35:35.355Z,-0.20
2024-01-08T07:38:03.432Z,-0.20
2024-01-08T07:40:31.724Z,-0.13
2024-01-08T07:43:00.041Z,-0.18
2024-01-08T07:45:29.689Z,-0.22
2024-01-08T07:47:59.011Z,-0.25
2024-01-08T07:50:27.456Z,-0.22
2024-01-08T07:52:55.532Z,-0.21
2024-01-08T07:55:23.752Z,-0.15
2024-01-08T07:57:51.767Z,-0.13
2024-01-08T08:00:23.394Z,-0.15
2024-01-08T08:02:53.394Z,-0.20
2024-01-08T08:05:21.577Z,-0.19
2024-01-08T08:07:51.082Z,-0.18
2024-01-08T08:10:22.037Z,-0.07
2024-01-08T08:12:53.191Z,-0.02
2024-01-08T08:15:21.691Z,-0.02
2024-01-08T08:17:51.386Z,-0.13
2024-01-08T08:20:23.191Z,-0.06
2024-01-08T08:22:52.668Z,-0.05
2024-01-08T08:25:21.214Z,-0.03
2024-01-08T08:27:49.538Z,-0.02
2024-01-08T08:30:20.668Z,0.05
2024-01-08T08:32:49.238Z,0.03
2024-01-08T08:35:17.804Z,0.01
2024-01-08T08:37:53.383Z,-0.01
2024-01-08T08:40:23.333Z,-0.06
2024-01-08T08:42:52.003Z,0.03
2024-01-08T08:45:20.408Z,0.00
2024-01-08T08:47:49.217Z,0.00
2024-01-08T08:50:17.767Z,0.01
2024-01-08T08:52:47.713Z,0.02
2024-01-08T08:55:16.299Z,0.03
2024-01-08T08:57:44.783Z,-0.04
2024-01-08T09:00:15.861Z,-0.02
2024-01-08T09:02:46.868Z,0.09
2024-01-08T09:05:19.699Z,0.06
2024-01-08T09:07:54.946Z,0.02
2024-01-08T09:10:23.025Z,0.09
2024-01-08T09:12:51.460Z,0.14
2024-01-08T09:15:19.864Z,0.16
2024-01-08T09:17:49.377Z,0.20
2024-01-08T09:20:17.648Z,0.18
2024-01-08T09:22:45.816Z,0.15
2024-01-08T09:25:15.269Z,0.16
2024-01-08T09:27:43.686Z,0.19
2024-01-08T09:30:12.322Z,0.20
2024-01-08T09:32:40.438Z,0.17
2024-01-08T09:35:10.570Z,0.17
2024-01-08T09:37:39.762Z,0.20
2024-01-08T09:40:08.937Z,0.30
2024-01-08T09:42:40.366Z,0.28
2024-01-08T09:45:12.793Z,0.26
2024-01-08T09:47:43.095Z,0.26
2024-01-08T09:50:12.812Z,0.32
2024-01-08T09:52:42.779Z,0.23
2024-01-08T09:59:12.694Z,0.28
2024-01-08T10:01:44.136Z,0.28
2024-01-08T10:04:12.346Z,0.30
2024-01-08T10:06:40.730Z,0.33
2024-01-08T10:09:09.977Z,0.26
2024-01-08T10:11:39.677Z,0.30
2024-01-08T10:14:08.694Z,0.30
2024-01-08T10:16:50.476Z,0.31
2024-01-08T10:19:26.256Z,0.31
2024-01-08T10:22:08.851Z,0.31
2024-01-08T10:24:37.325Z,0.23
2024-01-08T10:27:05.540Z,0.28
2024-01-08T10:29:34.010Z,0.34
2024-01-08T10:32:03.460Z,0.38
2024-01-08T10:34:32.513Z,0.43
2024-01-08T10:37:00.716Z,0.37
2024-01-08T10:39:43.029Z,0.38
2024-01-08T10:42:16.249Z,0.46
2024-01-08T10:44:44.474Z,0.44
2024-01-08T10:47:18.673Z,0.37
2024-01-08T10:49:52.339Z,0.45
2024-01-08T10:52:26.176Z,0.39
2024-01-08T10:54:57.025Z,0.36
2024-01-08T10:57:30.519Z,0.39
2024-01-08T10:59:59.030Z,0.33
2024-01-08T11:02:29.340Z,0.35
2024-01-08T11:05:00.529Z,0.27
2024-01-08T11:07:29.314Z,0.31
2024-01-08T11:10:04.511Z,0.30
2024-01-08T11:12:32.635Z,0.21
2024-01-08T11:15:03.529Z,0.25
2024-01-08T11:17:33.387Z,0.30
2024-01-08T11:20:07.226Z,0.30
2024-01-08T11:22:35.415Z,0.16
2024-01-08T11:25:04.629Z,0.21
2024-01-08T11:27:33.541Z,0.13
2024-01-08T11:30:05.500Z,0.20
2024-01-08T11:33:01.942Z,0.32
2024-01-08T11:35:31.226Z,0.38
2024-01-08T11:38:13.209Z,0.52
2024-01-08T11:40:44.753Z,0.48
2024-01-08T11:43:13.450Z,0.68
2024-01-08T11:45:41.512Z,0.61
2024-01-08T11:48:11.225Z,0.60
2024-01-08T11:50:42.823Z,0.65
2024-01-08T11:53:12.256Z,0.65
2024-01-08T11:55:41.829Z,0.61
2024-01-08T11:58:10.052Z,0.66
2024-01-08T12:00:38.073Z,0.58
2024-01-08T12:03:07.022Z,0.68
2024-01-08T12:05:39.713Z,0.58
2024-01-08T12:08:08.271Z,0.52
2024-01-08T12:10:36.511Z,0.56
2024-01-08T12:13:05.015Z,0.58
2024-01-08T12:15:33.752Z,0.54
2024-01-08T12:18:02.307Z,0.75
2024-01-08T12:20:30.786Z,0.88
2024-01-08T12:23:00.473Z,1.03
2024-01-08T12:25:28.668Z,1.05
2024-01-08T12:28:01.418Z,0.83
2024-01-08T12:30:30.881Z,0.91
2024-01-08T12:32:59.442Z,0.90
2024-01-08T12:35:28.021Z,0.86
2024-01-08T12:37:57.018Z,0.80
2024-01-08T12:40:26.484Z,0.75
2024-01-08T12:42:54.536Z,0.65
2024-01-08T12:45:22.773Z,0.67
2024-01-08T12:47:51.085Z,0.55
2024-01-08T12:50:19.629Z,0.43
2024-01-08T12:52:47.862Z,0.37
2024-01-08T12:55:15.927Z,0.40
2024-01-08T12:57:45.338Z,0.36
2024-01-08T13:00:15.304Z,0.26
2024-01-08T13:02:43.656Z,0.27
2024-01-08T13:05:14.892Z,0.30
2024-01-08T13:07:43.833Z,0.31
2024-01-08T13:10:12.267Z,0.47
2024-01-08T13:12:41.449Z,0.63
2024-01-08T13:15:11.520Z,0.69
2024-01-08T13:17:39.677Z,0.68
2024-01-08T13:20:21.921Z,0.74
2024-01-08T13:22:56.177Z,0.77
2024-01-08T13:25:25.209Z,0.78
2024-01-08T13:27:53.447Z,0.70
2024-01-08T13:30:23.471Z,0.70
2024-01-08T13:32:51.713Z,0.72
2024-01-08T13:35:19.822Z,0.74
2024-01-08T13:37:49.211Z,0.79
2024-01-08T13:40:21.111Z,0.67
2024-01-08T13:42:51.336Z,0.74
2024-01-08T13:45:19.781Z,0.63
2024-01-08T13:47:50.651Z,0.65
2024-01-08T13:50:20.303Z,0.60
2024-01-08T13:52:48.775Z,0.57
2024-01-08T13:55:16.821Z,0.50
2024-01-08T13:57:45.661Z,0.51
2024-01-08T14:00:15.025Z,0.51
2024-01-08T14:02:43.563Z,0.44
2024-01-08T14:05:13.501Z,0.45
2024-01-08T14:07:42.048Z,0.37
2024-01-08T14:10:11.716Z,0.43
2024-01-08T14:12:39.838Z,0.38
2024-01-08T14:15:09.173Z,0.29
2024-01-08T14:17:39.465Z,0.29
2024-01-08T14:20:10.081Z,0.34
2024-01-08T14:22:39.803Z,0.34
2024-01-08T14:25:09.183Z,0.27
2024-01-08T14:27:37.905Z,0.33
2024-01-08T14:30:07.390Z,0.22
2024-01-08T14:32:35.930Z,0.33
2024-01-08T14:35:05.180Z,0.23
2024-01-08T14:37:33.290Z,0.15
2024-01-08T14:40:02.803Z,0.13
2024-01-08T14:42:30.920Z,0.15
2024-01-08T14:44:59.940Z,0.14
2024-01-08T14:47:28.475Z,0.17
2024-01-08T14:49:56.637Z,0.11
2024-01-08T14:52:25.850Z,0.08
2024-01-08T14:54:54.062Z,0.08
2024-01-08T14:57:23.632Z,0.03
2024-01-08T14:59:51.820Z,0.03
2024-01-08T15:02:20.024Z,0.00
2024-01-08T15:04:48.088Z,-0.02
2024-01-08T15:07:16.399Z,-0.06
2024-01-08T15:09:46.736Z,-0.08
2024-01-08T15:12:15.158Z,-0.15
2024-01-08T15:14:44.644Z,-0.16
2024-01-08T15:17:12.777Z,-0.21
2024-01-08T15:19:42.197Z,-0.27
2024-01-08T15:22:10.330Z,-0.26
2024-01-08T15:24:39.465Z,-0.29
2024-01-08T15:27:07.576Z,-0.33
2024-01-08T15:29:35.792Z,-0.36
2024-01-08T15:32:05.524Z,-0.31
2024-01-08T15:34:33.708Z,-0.35
2024-01-08T15:37:01.927Z,-0.43
2024-01-08T15:39:30.070Z,-0.44
2024-01-08T15:41:58.285Z,-0.44
2024-01-08T15:44:26.417Z,-0.45
2024-01-08T15:46:55.397Z,-0.48
2024-01-08T15:49:24.975Z,-0.47
2024-01-08T15:51:53.923Z,-0.47
2024-01-08T15:54:23.816Z,-0.54
2024-01-08T15:56:52.217Z,-0.57
2024-01-08T15:59:21.337Z,-0.59
2024-01-08T16:01:49.537Z,-0.65
2024-01-08T16:04:18.041Z,-0.61
2024-01-08T16:06:50.232Z,-0.63
2024-01-08T16:09:18.935Z,-0.62
2024-01-08T16:11:49.452Z,-0.70
2024-01-08T16:14:17.748Z,-0.68
2024-01-08T16:16:45.865Z,-0.66
2024-01-08T16:19:14.123Z,-0.71
2024-01-08T16:21:42.245Z,-0.75
2024-01-08T16:24:14.151Z,-0.71
2024-01-08T16:26:43.416Z,-0.75
2024-01-08T16:29:11.764Z,-0.74
2024-01-08T16:31:41.203Z,-0.83
2024-01-08T16:34:09.355Z,-0.85
2024-01-08T16:36:37.636Z,-0.89
2024-01-08T16:39:06.186Z,-0.92
2024-01-08T16:41:35.912Z,-0.87
2024-01-08T16:44:04.658Z,-0.89
2024-01-08T16:46:33.403Z,-0.88
2024-01-08T16:49:02.454Z,-0.88
2024-01-08T16:51:30.835Z,-0.89
2024-01-08T16:54:01.309Z,-0.88
2024-01-08T16:56:32.351Z,-0.82
2024-01-08T16:59:02.074Z,-0.87
2024-01-08T17:01:34.557Z,-0.86
2024-01-08T17:04:04.215Z,-0.87
2024-01-08T17:06:33.394Z,-0.86
2024-01-08T17:09:03.832Z,-0.88
2024-01-08T17:11:32.185Z,-0.85
2024-01-08T17:14:01.841Z,-0.91
2024-01-08T17:16:30.241Z,-0.95
2024-01-08T17:18:58.441Z,-0.98
2024-01-08T17:21:26.848Z,-1.02
2024-01-08T17:23:56.232Z,-1.04
2024-01-08T17:26:24.514Z,-1.04
2024-01-08T17:28:56.177Z,-1.04
2024-01-08T17:31:26.073Z,-1.04
2024-01-08T17:33:56.708Z,-1.04
2024-01-08T17:36:26.410Z,-1.06
2024-01-08T17:38:54.991Z,-1.04
2024-01-08T17:41:24.851Z,-1.10
2024-01-08T17:43:53.434Z,-1.11
2024-01-08T17:46:21.543Z,-1.08
2024-01-08T17:48:54.276Z,-1.08
2024-01-08T17:51:22.669Z,-1.12
2024-01-08T17:53:50.844Z,-1.15
2024-01-08T17:56:19.033Z,-1.15
2024-01-08T17:58:48.170Z,-1.18
2024-01-08T18:01:19.099Z,-1.18
2024-01-08T18:03:48.028Z,-1.20
2024-01-08T18:06:18.191Z,-1.17
2024-01-08T18:08:46.907Z,-1.21
2024-01-08T18:11:16.019Z,-1.21
2024-01-08T18:13:47.439Z,-1.22
2024-01-08T18:16:16.272Z,-1.22
2024-01-08T18:18:44.440Z,-1.23
2024-01-08T18:21:24.451Z,-1.25
2024-01-08T18:23:52.814Z,-1.27
2024-01-08T18:26:21.247Z,-1.26
2024-01-08T18:28:49.663Z,-1.29
2024-01-08T18:31:17.900Z,-1.23
2024-01-08T18:33:47.209Z,-1.20
2024-01-08T18:36:16.008Z,-1.26
2024-01-08T18:38:45.543Z,-1.28
2024-01-08T18:41:13.609Z,-1.29
2024-01-08T18:43:41.672Z,-1.33
2024-01-08T18:46:10.438Z,-1.32
2024-01-08T18:48:38.726Z,-1.32
2024-01-08T18:51:06.883Z,-1.32
2024-01-08T18:53:35.222Z,-1.29
2024-01-08T18:56:05.172Z,-1.30
2024-01-08T18:58:33.265Z,-1.28
2024-01-08T19:01:01.825Z,-1.28
2024-01-08T19:03:30.170Z,-1.30
2024-01-08T19:05:59.987Z,-1.27
2024-01-08T19:08:30.296Z,-1.29
2024-01-08T19:10:58.409Z,-1.35
2024-01-08T19:13:28.647Z,-1.36
2024-01-08T19:15:56.811Z,-1.32
2024-01-08T19:18:25.663Z,-1.27
2024-01-08T19:20:54.175Z,-1.23
2024-01-08T19:23:23.297Z,-1.20
2024-01-08T19:25:53.123Z,-1.18
2024-01-08T19:28:21.544Z,-1.17
2024-01-08T19:30:50.993Z,-1.19
2024-01-08T19:33:19.486Z,-1.21
2024-01-08T19:35:48.106Z,-1.21
2024-01-08T19:38:16.396Z,-1.22
2024-01-08T19:40:44.763Z,-1.19
2024-01-08T19:43:12.942Z,-1.18
2024-01-08T19:45:41.026Z,-1.21
2024-01-08T19:48:10.868Z,-1.22
2024-01-08T19:50:39.206Z,-1.22
2024-01-08T19:53:07.292Z,-1.17
2024-01-08T19:55:37.846Z,-1.18
2024-01-08T19:58:06.412Z,-1.23
2024-01-08T20:00:34.909Z,-1.25
2024-01-08T20:03:03.294Z,-1.25
2024-01-08T20:05:33.054Z,-1.23
2024-01-08T20:08:01.606Z,-1.20
2024-01-08T20:10:29.736Z,-1.19
2024-01-08T20:13:03.453Z,-1.12
2024-01-08T20:15:31.781Z,-1.08
2024-01-08T20:18:00.037Z,-1.08
2024-01-08T20:20:28.284Z,-1.09
2024-01-08T20:22:57.732Z,-1.07
2024-01-08T20:25:25.991Z,-1.09
2024-01-08T20:27:54.083Z,-1.12
2024-01-08T20:30:22.907Z,-1.15
2024-01-08T20:32:52.251Z,-1.16
2024-01-08T20:35:20.429Z,-1.16
2024-01-08T20:37:48.815Z,-1.15
2024-01-08T20:40:18.362Z,-1.16
2024-01-08T20:42:46.635Z,-1.17
2024-01-08T20:45:14.804Z,-1.18
2024-01-08T20:47:45.882Z,-1.19
2024-01-08T20:50:14.615Z,-1.19
2024-01-08T20:52:42.724Z,-1.34
2024-01-08T20:55:11.204Z,-1.36
2024-01-08T20:57:40.687Z,-1.36
2024-01-08T21:00:10.624Z,-1.32
2024-01-08T21:02:42.084Z,-1.30
2024-01-08T21:05:12.733Z,-1.27
2024-01-08T21:07:42.202Z,-1.25
2024-01-08T21:10:11.236Z,-1.26
2024-01-08T21:12:40.709Z,-1.22
2024-01-08T21:15:10.311Z,-1.23
2024-01-08T21:17:38.529Z,-1.25
2024-01-08T21:20:09.319Z,-1.27
2024-01-08T21:22:37.364Z,-1.30
2024-01-08T21:26:18.983Z,-1.28
2024-01-08T21:28:48.510Z,-1.36
2024-01-08T21:31:17.080Z,-1.34
2024-01-08T21:33:45.404Z,-1.32
2024-01-08T21:36:14.765Z,-1.35
2024-01-08T21:38:43.211Z,-1.35
2024-01-08T21:41:11.637Z,-1.41
2024-01-08T21:43:39.841Z,-1.40
2024-01-08T21:46:09.296Z,-1.41
2024-01-08T21:48:37.695Z,-1.37
2024-01-08T21:54:59.024Z,-1.38
2024-01-08T21:57:27.150Z,-1.40
2024-01-08T21:59:55.256Z,-1.43
2024-01-08T22:02:24.763Z,-1.46
2024-01-08T22:04:53.048Z,-1.54
2024-01-08T22:07:21.132Z,-1.53
2024-01-08T22:09:49.171Z,-1.55
2024-01-08T22:12:17.227Z,-1.56
2024-01-08T22:14:45.319Z,-1.53
2024-01-08T22:17:13.470Z,-1.46
2024-01-08T22:19:43.249Z,-1.49
2024-01-08T22:22:11.297Z,-1.48
2024-01-08T22:24:41.133Z,-1.45
2024-01-08T22:27:09.296Z,-1.46
2024-01-08T22:29:37.383Z,-1.46
2024-01-08T22:32:06.002Z,-1.45
2024-01-08T22:34:34.178Z,-1.48
2024-01-08T22:37:03.637Z,-1.48
2024-01-08T22:39:31.618Z,-1.50
2024-01-08T22:41:59.704Z,-1.51
2024-01-08T22:44:27.797Z,-1.51
2024-01-08T22:46:55.918Z,-1.52
2024-01-08T22:49:23.957Z,-1.53
2024-01-08T22:51:55.215Z,-1.57
2024-01-08T22:54:24.845Z,-1.60
2024-01-08T23:00:49.796Z,-1.63
2024-01-08T23:03:17.972Z,-1.63
2024-01-08T23:05:46.088Z,-1.66
2024-01-08T23:08:14.299Z,-1.67
2024-01-08T23:10:43.814Z,-1.67
2024-01-08T23:13:11.881Z,-1.65
2024-01-08T23:15:39.868Z,-1.70
2024-01-08T23:18:08.273Z,-1.70
2024-01-08T23:20:36.875Z,-1.72
2024-01-08T23:23:05.235Z,-1.75
2024-01-08T23:25:33.313Z,-1.74
2024-01-08T23:28:02.718Z,-1.76
2024-01-08T23:30:30.754Z,-1.76
2024-01-08T23:32:58.864Z,-1.82
2024-01-08T23:43:24.983Z,-1.82
2024-01-08T23:45:53.048Z,-1.85
2024-01-08T23:48:21.158Z,-1.86
2024-01-08T23:50:49.283Z,-1.84
2024-01-08T23:53:17.454Z,-1.88
2024-01-08T23:55:45.470Z,-1.88
2024-01-08T23:58:13.540Z,-1.90
